Time;durP1;ratioP1;P1;durP2;ratioP2;P2;SDS_P1;SDS_P2;PMS_P1;PMS_P2;Temp;Humidity;BMP_temperature;BMP_pressure;BME280_temperature;BME280_humidity;BME280_pressure;Samples;Min_cycle;Max_cycle;Signal;HPM_P1;HPM_P2
2023/01/02 00:01:11;;;;;;;10.93;4.47;;;12.50;99.90;;;;;;5056569;28;20025;-72
2023/01/02 00:03:36;;;;;;;11.73;4.40;;;12.60;99.90;;;;;;5057382;28;20033;-71
2023/01/02 00:06:03;;;;;;;10.10;4.22;;;12.60;99.90;;;;;;5057054;28;20036;-71
2023/01/02 00:08:29;;;;;;;12.93;4.63;;;12.60;99.90;;;;;;5055809;28;20029;-71
2023/01/02 00:10:55;;;;;;;8.82;4.50;;;12.60;99.90;;;;;;5055221;28;20036;-72
2023/01/02 00:13:20;;;;;;;9.57;3.80;;;12.60;99.90;;;;;;5056209;28;20052;-71
2023/01/02 00:15:46;;;;;;;9.63;4.18;;;12.60;99.90;;;;;;5055582;28;20044;-72
2023/01/02 00:18:12;;;;;;;10.77;4.20;;;12.60;99.90;;;;;;5055444;28;20037;-71
2023/01/02 00:20:37;;;;;;;13.38;4.72;;;12.60;99.90;;;;;;5056223;28;20040;-72
2023/01/02 00:23:03;;;;;;;13.55;4.22;;;12.60;99.90;;;;;;5056495;28;20035;-71
2023/01/02 00:25:28;;;;;;;11.07;4.10;;;12.60;99.90;;;;;;5038285;28;20080;-71
2023/01/02 00:27:55;;;;;;;10.18;4.05;;;12.60;99.90;;;;;;5055196;28;20041;-72
2023/01/02 00:30:21;;;;;;;10.70;4.15;;;12.60;99.90;;;;;;5056375;28;20017;-72
2023/01/02 00:32:46;;;;;;;8.13;3.72;;;12.60;99.90;;;;;;5056535;28;20087;-71
2023/01/02 00:35:12;;;;;;;10.25;4.10;;;12.70;99.90;;;;;;5038668;28;20029;-71
2023/01/02 00:37:38;;;;;;;9.10;3.25;;;12.70;99.90;;;;;;5055436;28;20416;-72
2023/01/02 00:40:04;;;;;;;13.05;4.00;;;12.70;99.90;;;;;;5056049;28;20522;-72
2023/01/02 00:42:30;;;;;;;14.55;4.38;;;12.70;99.90;;;;;;5055768;28;20028;-72
2023/01/02 00:44:55;;;;;;;15.02;4.25;;;12.70;99.90;;;;;;5055748;28;20025;-71
2023/01/02 00:47:21;;;;;;;11.38;4.47;;;12.80;99.90;;;;;;5054953;28;20405;-72
2023/01/02 00:49:47;;;;;;;13.10;4.00;;;12.70;99.90;;;;;;5055988;28;20033;-72
2023/01/02 00:52:12;;;;;;;9.05;4.10;;;12.70;99.90;;;;;;5054731;28;20025;-72
2023/01/02 00:54:38;;;;;;;10.60;3.70;;;12.80;99.90;;;;;;5054507;28;20029;-71
2023/01/02 00:57:04;;;;;;;11.50;3.95;;;12.70;99.90;;;;;;5054636;28;20056;-70
2023/01/02 00:59:29;;;;;;;10.30;3.42;;;12.70;99.90;;;;;;5055825;28;20119;-71
2023/01/02 01:01:55;;;;;;;8.27;3.53;;;12.70;99.90;;;;;;5055392;28;20091;-70
2023/01/02 01:04:20;;;;;;;12.18;3.60;;;12.70;99.90;;;;;;5055654;28;20036;-70
2023/01/02 01:06:46;;;;;;;10.63;3.90;;;12.80;99.90;;;;;;5037380;28;20045;-71
2023/01/02 01:09:12;;;;;;;15.52;4.90;;;12.80;99.90;;;;;;5054355;28;20065;-71
2023/01/02 01:11:38;;;;;;;12.85;4.05;;;12.80;99.90;;;;;;5055422;28;20057;-70
2023/01/02 01:14:03;;;;;;;11.77;3.63;;;12.80;99.90;;;;;;5053920;28;20519;-71
2023/01/02 01:16:29;;;;;;;8.23;3.28;;;12.80;99.90;;;;;;5055134;28;20033;-71
2023/01/02 01:18:56;;;;;;;10.32;3.53;;;12.80;99.90;;;;;;5054149;28;20029;-71
2023/01/02 01:21:22;;;;;;;15.40;4.18;;;12.80;99.90;;;;;;5055384;28;20032;-71
2023/01/02 01:23:53;;;;;;;10.82;3.90;;;12.80;99.90;;;;;;5055624;28;20044;-72
2023/01/02 01:26:20;;;;;;;18.50;5.05;;;12.80;99.90;;;;;;5053706;28;20440;-73
2023/01/02 01:28:46;;;;;;;11.75;3.60;;;12.80;99.90;;;;;;5054509;28;20365;-71
2023/01/02 01:31:14;;;;;;;10.55;3.63;;;12.80;99.90;;;;;;5055488;28;20048;-72
2023/01/02 01:33:42;;;;;;;10.18;3.60;;;12.80;99.90;;;;;;5055107;28;20086;-71
2023/01/02 01:36:17;;;;;;;9.23;4.00;;;12.80;99.90;;;;;;5053810;28;20535;-72
2023/01/02 01:38:43;;;;;;;9.38;3.92;;;12.80;99.90;;;;;;5054761;28;20025;-72
2023/01/02 01:41:15;;;;;;;7.85;3.25;;;12.80;99.90;;;;;;5054531;28;20090;-72
2023/01/02 01:43:50;;;;;;;11.50;3.38;;;12.90;99.90;;;;;;5054684;28;20470;-72
2023/01/02 01:46:27;;;;;;;11.10;3.80;;;12.90;99.90;;;;;;5055183;28;20025;-71
2023/01/02 01:49:08;;;;;;;10.18;3.30;;;12.90;99.90;;;;;;5054908;28;20075;-71
2023/01/02 01:51:48;;;;;;;8.20;3.38;;;12.90;99.90;;;;;;5054019;28;20477;-71
2023/01/02 01:54:19;;;;;;;8.80;3.40;;;12.90;99.90;;;;;;5053480;28;20028;-71
2023/01/02 01:56:52;;;;;;;11.95;3.20;;;13.00;99.90;;;;;;5053808;28;20427;-71
2023/01/02 01:59:18;;;;;;;8.77;3.20;;;13.00;99.90;;;;;;5054980;28;20025;-72
2023/01/02 02:01:45;;;;;;;11.27;2.80;;;12.90;99.90;;;;;;5054839;28;20041;-72
2023/01/02 02:04:11;;;;;;;9.98;3.08;;;12.90;99.90;;;;;;5053639;28;20041;-72
2023/01/02 02:06:38;;;;;;;12.00;3.22;;;13.00;99.90;;;;;;5053490;28;20040;-72
2023/01/02 02:09:14;;;;;;;10.27;3.38;;;13.00;99.90;;;;;;5054452;28;20409;-71
2023/01/02 02:11:40;;;;;;;13.50;3.80;;;12.90;99.90;;;;;;5054250;28;20031;-71
2023/01/02 02:14:06;;;;;;;8.10;3.22;;;12.90;99.90;;;;;;5053205;28;20087;-72
2023/01/02 02:16:54;;;;;;;9.90;3.53;;;12.90;99.90;;;;;;5054015;28;20025;-72
2023/01/02 02:19:49;;;;;;;12.45;3.65;;;12.90;99.90;;;;;;5054272;28;20074;-71
2023/01/02 02:22:21;;;;;;;10.55;3.63;;;13.00;99.90;;;;;;5053276;28;20458;-72
2023/01/02 02:24:55;;;;;;;10.88;3.67;;;12.90;99.90;;;;;;5053980;28;20389;-71
2023/01/02 02:27:41;;;;;;;9.40;3.20;;;12.90;99.90;;;;;;5053108;28;20040;-71
2023/01/02 02:30:13;;;;;;;9.40;3.55;;;12.90;99.90;;;;;;5054177;28;20029;-72
2023/01/02 02:33:04;;;;;;;11.02;3.47;;;12.80;99.90;;;;;;5054392;28;20029;-71
2023/01/02 02:35:39;;;;;;;11.82;3.33;;;12.90;99.90;;;;;;5054078;28;20063;-71
2023/01/02 02:38:14;;;;;;;13.07;4.15;;;12.90;99.90;;;;;;5054026;28;20162;-71
2023/01/02 02:41:15;;;;;;;10.73;3.45;;;12.90;99.90;;;;;;5052643;28;20162;-71
2023/01/02 02:44:05;;;;;;;10.57;3.20;;;12.90;99.90;;;;;;4976180;28;20057;-71
2023/01/02 02:46:30;;;;;;;14.50;3.72;;;12.90;99.90;;;;;;5049323;28;20041;-72
2023/01/02 02:49:11;;;;;;;14.23;3.40;;;12.90;99.90;;;;;;5054361;28;20043;-71
2023/01/02 02:51:55;;;;;;;11.38;3.10;;;12.90;99.90;;;;;;5053591;28;20104;-71
2023/01/02 02:54:29;;;;;;;8.93;3.20;;;12.90;99.90;;;;;;5053678;28;20032;-72
2023/01/02 02:56:56;;;;;;;11.32;2.97;;;12.80;99.90;;;;;;5053787;28;20091;-72
2023/01/02 02:59:22;;;;;;;14.57;3.67;;;12.90;99.90;;;;;;5053364;28;20033;-72
2023/01/02 03:01:48;;;;;;;11.00;3.30;;;12.80;99.90;;;;;;5052448;28;20033;-72
2023/01/02 03:04:21;;;;;;;6.68;2.90;;;12.90;99.90;;;;;;5052097;28;20079;-71
2023/01/02 03:07:15;;;;;;;10.68;3.60;;;12.90;99.90;;;;;;5035652;28;20050;-71
2023/01/02 03:10:13;;;;;;;7.57;3.17;;;12.90;99.90;;;;;;5053514;28;20025;-71
2023/01/02 03:13:06;;;;;;;12.63;3.40;;;12.90;99.90;;;;;;5053082;28;20037;-70
2023/01/02 03:15:39;;;;;;;11.30;3.47;;;12.80;99.90;;;;;;5052895;28;20025;-70
2023/01/02 03:18:22;;;;;;;11.32;3.50;;;12.90;99.90;;;;;;5053005;28;20033;-71
2023/01/02 03:21:01;;;;;;;9.18;2.75;;;12.80;99.90;;;;;;5053038;28;20029;-71
2023/01/02 03:23:29;;;;;;;12.50;3.28;;;12.80;99.90;;;;;;5052731;28;20048;-71
2023/01/02 03:25:58;;;;;;;12.43;3.47;;;12.90;99.90;;;;;;5052847;28;20045;-70
2023/01/02 03:28:25;;;;;;;10.52;3.83;;;12.80;99.90;;;;;;5053100;28;20029;-71
2023/01/02 03:30:56;;;;;;;12.35;3.00;;;12.90;99.90;;;;;;5052898;28;20378;-71
2023/01/02 03:33:28;;;;;;;10.55;3.38;;;12.90;99.90;;;;;;5053634;28;20086;-71
2023/01/02 03:35:59;;;;;;;8.80;3.15;;;12.90;99.90;;;;;;5053346;28;20044;-71
2023/01/02 03:38:40;;;;;;;11.65;3.50;;;12.90;99.90;;;;;;5051967;28;20029;-70
2023/01/02 03:41:14;;;;;;;11.30;3.50;;;12.90;99.90;;;;;;5053185;28;20357;-71
2023/01/02 03:43:42;;;;;;;14.25;3.53;;;12.90;99.90;;;;;;5052512;28;20484;-71
2023/01/02 03:46:13;;;;;;;11.43;3.30;;;12.90;99.90;;;;;;5051348;28;20125;-71
2023/01/02 03:48:59;;;;;;;7.70;3.10;;;12.90;99.90;;;;;;5052402;28;20029;-70
2023/01/02 03:51:24;;;;;;;11.40;3.72;;;12.90;99.90;;;;;;5052407;28;20146;-71
2023/01/02 03:53:51;;;;;;;13.50;3.60;;;13.00;99.90;;;;;;5051318;28;20067;-71
2023/01/02 03:56:59;;;;;;;11.68;3.10;;;13.00;99.90;;;;;;5053278;28;20064;-70
2023/01/02 03:59:35;;;;;;;12.52;2.95;;;13.00;99.90;;;;;;5028885;28;20041;-70
2023/01/02 04:02:22;;;;;;;11.25;3.10;;;13.00;99.90;;;;;;5052764;28;20083;-70
2023/01/02 04:04:57;;;;;;;15.32;3.38;;;13.00;99.90;;;;;;5052499;28;20032;-70
2023/01/02 04:07:41;;;;;;;10.00;2.53;;;13.00;99.90;;;;;;5052553;28;20048;-70
2023/01/02 04:10:10;;;;;;;10.93;3.50;;;13.00;99.90;;;;;;5052373;28;20044;-71
2023/01/02 04:12:38;;;;;;;8.05;2.97;;;13.00;99.90;;;;;;5052455;28;20029;-71
2023/01/02 04:15:08;;;;;;;8.32;2.85;;;13.00;99.90;;;;;;5052518;28;20060;-71
2023/01/02 04:17:45;;;;;;;12.00;3.08;;;13.00;99.90;;;;;;5052737;28;20033;-71
2023/01/02 04:20:29;;;;;;;14.77;3.13;;;13.00;99.90;;;;;;5054331;28;20122;-71
2023/01/02 04:23:07;;;;;;;8.93;2.85;;;13.00;99.90;;;;;;5056400;28;20032;-71
2023/01/02 04:25:40;;;;;;;10.82;2.58;;;13.00;99.90;;;;;;5056128;28;20164;-71
2023/01/02 04:28:16;;;;;;;11.88;3.35;;;13.00;99.90;;;;;;5056708;28;20029;-71
2023/01/02 04:30:46;;;;;;;9.85;3.90;;;13.00;99.90;;;;;;5057537;28;20073;-71
2023/01/02 04:33:15;;;;;;;7.65;2.63;;;13.00;99.90;;;;;;5060063;28;20051;-71
2023/01/02 04:35:41;;;;;;;10.95;2.83;;;13.00;99.90;;;;;;5058774;28;20029;-71
2023/01/02 04:38:08;;;;;;;8.48;3.10;;;13.00;99.90;;;;;;5057119;28;20047;-71
2023/01/02 04:40:37;;;;;;;9.48;2.70;;;13.00;99.90;;;;;;5058614;28;20061;-71
2023/01/02 04:43:06;;;;;;;11.93;3.20;;;13.00;99.90;;;;;;5055682;28;20134;-71
2023/01/02 04:45:32;;;;;;;8.13;2.90;;;13.00;99.90;;;;;;5055600;28;20203;-71
2023/01/02 04:47:57;;;;;;;9.60;2.95;;;12.90;99.90;;;;;;5054666;28;20200;-71
2023/01/02 04:50:23;;;;;;;10.43;2.83;;;13.00;99.90;;;;;;5054943;28;20405;-71
2023/01/02 04:52:49;;;;;;;6.97;2.88;;;12.90;99.90;;;;;;5055155;28;20041;-71
2023/01/02 04:55:14;;;;;;;9.90;3.03;;;12.90;99.90;;;;;;5055293;28;20477;-71
2023/01/02 04:57:40;;;;;;;9.10;3.05;;;12.90;99.90;;;;;;5055023;28;20064;-71
2023/01/02 05:00:07;;;;;;;8.52;3.05;;;12.90;99.90;;;;;;5054808;28;20475;-70
2023/01/02 05:02:36;;;;;;;8.10;3.17;;;12.90;99.90;;;;;;5055217;28;20057;-71
2023/01/02 05:05:03;;;;;;;9.63;2.60;;;12.90;99.90;;;;;;5054057;28;20170;-71
2023/01/02 05:07:29;;;;;;;8.55;2.35;;;12.90;99.90;;;;;;5053759;28;20033;-70
2023/01/02 05:09:55;;;;;;;10.50;2.85;;;12.90;99.90;;;;;;5037171;28;20538;-71
2023/01/02 05:12:20;;;;;;;8.10;2.60;;;12.90;99.90;;;;;;5054991;28;20064;-71
2023/01/02 05:14:46;;;;;;;9.35;2.78;;;12.90;99.90;;;;;;5055090;28;20060;-71
2023/01/02 05:17:11;;;;;;;9.48;3.88;;;12.90;99.90;;;;;;5053600;28;20396;-71
2023/01/02 05:19:37;;;;;;;10.25;3.00;;;12.90;99.90;;;;;;5054955;28;20033;-71
2023/01/02 05:24:46;;;;;;;7.53;2.70;;;12.90;99.90;;;;;;5053357;28;20405;-71
2023/01/02 05:27:13;;;;;;;8.85;2.63;;;12.90;99.90;;;;;;5055115;28;20037;-71
2023/01/02 05:29:38;;;;;;;7.97;3.60;;;12.90;99.90;;;;;;5054684;28;20040;-70
2023/01/02 05:32:04;;;;;;;7.43;2.83;;;12.90;99.90;;;;;;5054372;28;20025;-71
2023/01/02 05:34:30;;;;;;;7.82;2.40;;;12.90;99.90;;;;;;5053968;28;20060;-71
2023/01/02 05:36:55;;;;;;;8.23;2.55;;;12.90;99.90;;;;;;5054273;28;20029;-71
2023/01/02 05:39:21;;;;;;;7.50;2.42;;;12.90;99.90;;;;;;5054230;28;20044;-71
2023/01/02 05:41:47;;;;;;;9.90;3.15;;;12.90;99.90;;;;;;5054578;28;20029;-70
2023/01/02 05:44:12;;;;;;;11.85;2.88;;;12.90;99.90;;;;;;5054222;28;20037;-70
2023/01/02 05:46:38;;;;;;;8.27;2.50;;;12.90;99.90;;;;;;5053225;28;20033;-71
2023/01/02 05:49:09;;;;;;;7.55;2.53;;;12.90;99.90;;;;;;5052691;28;20032;-71
2023/01/02 05:51:35;;;;;;;11.90;2.40;;;12.90;99.90;;;;;;5054265;28;20057;-70
2023/01/02 05:54:01;;;;;;;9.65;2.83;;;13.00;99.90;;;;;;5054194;28;20041;-70
2023/01/02 05:56:28;;;;;;;9.98;3.22;;;12.90;99.90;;;;;;5054221;28;20031;-70
2023/01/02 05:58:54;;;;;;;9.63;2.00;;;12.90;99.90;;;;;;5036659;28;20029;-70
2023/01/02 06:01:25;;;;;;;9.18;2.97;;;13.00;99.90;;;;;;5053744;28;20382;-70
2023/01/02 06:03:53;;;;;;;13.43;2.63;;;13.00;99.90;;;;;;5054036;28;20024;-71
2023/01/02 06:06:21;;;;;;;10.30;3.05;;;13.00;99.90;;;;;;5053886;28;20037;-71
2023/01/02 06:08:47;;;;;;;8.43;2.45;;;13.00;99.90;;;;;;5053116;28;20090;-71
2023/01/02 06:11:12;;;;;;;7.30;2.80;;;13.00;99.90;;;;;;5054040;28;20033;-71
2023/01/02 06:13:38;;;;;;;9.05;2.92;;;13.00;99.90;;;;;;5054923;28;20048;-71
2023/01/02 06:16:06;;;;;;;7.45;2.00;;;13.00;99.90;;;;;;5054496;28;20040;-71
2023/01/02 06:18:34;;;;;;;6.97;2.42;;;13.00;99.90;;;;;;5052499;28;20045;-70
2023/01/02 06:21:00;;;;;;;8.77;2.30;;;13.00;99.90;;;;;;5053991;28;20053;-71
2023/01/02 06:23:27;;;;;;;7.90;2.53;;;13.00;99.90;;;;;;5053786;28;20464;-71
2023/01/02 06:25:52;;;;;;;7.13;2.20;;;13.00;99.90;;;;;;5053924;28;20127;-70
2023/01/02 06:28:18;;;;;;;4.10;1.95;;;13.00;99.90;;;;;;5053412;28;20468;-70
2023/01/02 06:30:44;;;;;;;5.13;1.80;;;13.00;99.90;;;;;;5053435;28;20109;-70
2023/01/02 06:33:09;;;;;;;5.53;2.33;;;13.00;99.90;;;;;;5053840;28;20430;-70
2023/01/02 06:35:35;;;;;;;9.07;2.17;;;13.00;99.90;;;;;;5052815;28;20065;-70
2023/01/02 06:38:01;;;;;;;10.27;2.95;;;13.00;99.90;;;;;;5053357;28;20378;-70
2023/01/02 06:40:26;;;;;;;5.88;2.30;;;13.00;99.90;;;;;;5053210;28;20029;-70
2023/01/02 06:42:52;;;;;;;5.88;2.35;;;13.00;99.90;;;;;;5052607;28;20025;-70
2023/01/02 06:45:17;;;;;;;5.22;2.50;;;12.90;99.90;;;;;;5052088;28;20036;-70
2023/01/02 06:47:43;;;;;;;5.43;2.20;;;12.90;99.90;;;;;;5053132;28;20037;-70
2023/01/02 06:50:09;;;;;;;6.30;1.92;;;12.90;99.90;;;;;;5053200;28;20091;-70
2023/01/02 06:52:35;;;;;;;2.30;0.93;;;12.80;99.90;;;;;;5053350;28;20048;-70
2023/01/02 06:55:01;;;;;;;1.45;0.30;;;12.70;99.90;;;;;;5051645;28;20029;-71
2023/01/02 06:57:29;;;;;;;0.93;0.20;;;12.70;99.90;;;;;;5053088;28;20044;-71
2023/01/02 06:59:55;;;;;;;1.13;0.40;;;12.50;99.90;;;;;;5053201;28;20031;-70
2023/01/02 07:02:21;;;;;;;0.95;0.10;;;12.40;99.90;;;;;;5053240;28;20108;-71
2023/01/02 07:04:47;;;;;;;0.50;0.10;;;12.40;99.90;;;;;;5052450;28;20029;-71
2023/01/02 07:07:13;;;;;;;0.55;0.10;;;12.30;99.90;;;;;;5052827;28;20487;-71
2023/01/02 07:09:38;;;;;;;0.70;0.10;;;12.20;99.90;;;;;;5052712;28;20041;-71
2023/01/02 07:12:04;;;;;;;0.20;0.10;;;12.20;99.90;;;;;;5052792;28;20029;-72
2023/01/02 07:14:30;;;;;;;1.08;0.10;;;12.10;99.90;;;;;;5053572;28;20029;-73
2023/01/02 07:16:55;;;;;;;1.08;0.10;;;12.00;99.90;;;;;;5051141;28;20033;-73
2023/01/02 07:19:21;;;;;;;0.47;0.10;;;12.00;99.90;;;;;;5052593;28;20033;-72
2023/01/02 07:21:47;;;;;;;0.73;0.17;;;11.90;99.90;;;;;;5051600;28;20029;-73
2023/01/02 07:24:14;;;;;;;0.40;0.10;;;11.80;99.90;;;;;;5052979;28;20029;-73
2023/01/02 07:26:40;;;;;;;0.70;0.20;;;11.80;99.90;;;;;;5051177;28;20064;-73
2023/01/02 07:29:06;;;;;;;0.98;0.30;;;11.80;99.90;;;;;;5052444;28;20037;-72
2023/01/02 07:31:31;;;;;;;0.45;0.20;;;11.70;99.90;;;;;;5051125;28;20393;-72
2023/01/02 07:40:23;;;;;;;0.82;0.55;;;11.60;99.90;;;;;;4991799;28;20529;-72
2023/01/02 07:42:49;;;;;;;1.10;0.45;;;11.60;99.90;;;;;;5051359;28;20048;-73
2023/01/02 07:45:15;;;;;;;1.02;0.55;;;11.50;99.90;;;;;;5052553;28;20370;-75
2023/01/02 07:47:40;;;;;;;1.42;0.70;;;11.50;99.90;;;;;;5053453;28;20370;-73
2023/01/02 07:50:06;;;;;;;1.30;0.70;;;11.50;99.90;;;;;;5053559;28;20037;-71
2023/01/02 07:52:32;;;;;;;1.23;1.00;;;11.50;99.90;;;;;;5053234;28;20025;-71
2023/01/02 07:54:57;;;;;;;1.42;1.33;;;11.40;99.90;;;;;;5053354;28;20086;-71
2023/01/02 07:57:23;;;;;;;1.63;1.52;;;11.40;99.90;;;;;;5057988;28;20041;-72
2023/01/02 07:59:49;;;;;;;2.58;1.77;;;11.40;99.90;;;;;;5056622;28;20120;-70
2023/01/02 08:02:14;;;;;;;2.30;2.10;;;11.40;99.90;;;;;;5056090;28;20040;-71
2023/01/02 08:04:40;;;;;;;2.38;2.13;;;11.40;99.90;;;;;;5056408;28;20090;-70
2023/01/02 08:07:06;;;;;;;3.03;2.80;;;11.40;99.90;;;;;;5054988;28;20397;-70
2023/01/02 08:09:31;;;;;;;3.05;2.85;;;11.40;99.90;;;;;;5056144;28;20036;-70
2023/01/02 08:11:57;;;;;;;3.83;3.53;;;11.40;99.90;;;;;;5056336;28;20044;-71
2023/01/02 08:14:22;;;;;;;3.92;3.63;;;11.40;99.90;;;;;;5056626;28;20087;-73
2023/01/02 08:16:48;;;;;;;4.40;4.00;;;11.40;99.90;;;;;;5038756;28;20040;-73
2023/01/02 08:19:14;;;;;;;4.80;4.35;;;11.40;99.90;;;;;;5054875;28;20029;-70
2023/01/02 08:21:39;;;;;;;5.90;4.75;;;11.40;99.90;;;;;;5055575;28;20028;-71
2023/01/02 08:24:07;;;;;;;6.53;5.57;;;11.40;99.90;;;;;;5055666;28;20146;-70
2023/01/02 08:26:32;;;;;;;6.60;6.00;;;11.40;99.90;;;;;;5056497;28;20041;-69
2023/01/02 08:28:59;;;;;;;7.30;6.55;;;11.40;99.90;;;;;;5055996;28;20037;-69
2023/01/02 08:31:24;;;;;;;7.13;6.43;;;11.30;99.90;;;;;;5054647;28;20041;-70
2023/01/02 08:33:50;;;;;;;6.25;5.65;;;11.30;99.90;;;;;;5055740;28;20135;-70
2023/01/02 08:36:16;;;;;;;6.88;5.88;;;11.30;99.90;;;;;;5054201;28;20027;-71
2023/01/02 08:38:42;;;;;;;5.93;5.00;;;11.30;99.90;;;;;;5038469;28;20036;-70
2023/01/02 08:41:07;;;;;;;7.95;6.30;;;11.30;99.90;;;;;;5055468;28;20128;-70
2023/01/02 08:43:35;;;;;;;8.52;6.90;;;11.30;99.90;;;;;;5055565;28;20113;-71
2023/01/02 08:46:08;;;;;;;9.43;7.13;;;11.20;99.90;;;;;;5055436;28;20134;-70
2023/01/02 08:48:35;;;;;;;7.82;6.80;;;11.20;99.90;;;;;;5055324;28;20040;-70
2023/01/02 08:51:01;;;;;;;6.97;6.28;;;11.20;99.90;;;;;;5055938;28;20028;-70
2023/01/02 08:53:27;;;;;;;9.18;6.75;;;11.20;99.90;;;;;;5055372;28;20055;-70
2023/01/02 08:55:52;;;;;;;5.97;5.38;;;11.30;99.90;;;;;;5054947;28;20418;-70
2023/01/02 08:58:18;;;;;;;6.13;5.53;;;11.30;99.90;;;;;;5055301;28;20476;-71
2023/01/02 09:00:44;;;;;;;5.18;4.68;;;11.20;99.90;;;;;;5055768;28;20029;-71
2023/01/02 09:03:09;;;;;;;5.82;4.78;;;11.30;99.90;;;;;;5055186;28;20458;-70
2023/01/02 09:05:35;;;;;;;5.53;5.03;;;11.30;99.90;;;;;;5055177;28;20083;-70
2023/01/02 09:08:01;;;;;;;5.38;4.38;;;11.30;99.90;;;;;;5055377;28;20039;-71
2023/01/02 09:10:27;;;;;;;5.05;4.10;;;11.30;99.90;;;;;;5053727;28;20481;-72
2023/01/02 09:12:52;;;;;;;4.00;3.33;;;11.30;99.90;;;;;;5053792;28;20040;-70
2023/01/02 09:15:18;;;;;;;4.15;3.20;;;11.20;99.90;;;;;;5053722;28;20038;-72
2023/01/02 09:17:44;;;;;;;3.83;3.08;;;11.30;99.90;;;;;;5055222;28;20087;-70
2023/01/02 09:20:10;;;;;;;3.85;3.10;;;11.10;99.90;;;;;;5054741;28;20488;-74
2023/01/02 09:22:36;;;;;;;3.63;3.03;;;11.10;99.90;;;;;;5053837;28;20075;-74
2023/01/02 09:25:02;;;;;;;3.55;2.58;;;11.10;99.90;;;;;;5055152;28;20412;-71
2023/01/02 09:27:27;;;;;;;2.78;2.47;;;11.20;99.90;;;;;;5055303;28;20029;-74
2023/01/02 09:29:53;;;;;;;2.72;2.40;;;11.10;99.90;;;;;;5053286;28;20037;-71
2023/01/02 09:32:19;;;;;;;5.30;2.70;;;11.10;99.90;;;;;;5057348;28;20104;-71
2023/01/02 09:34:49;;;;;;;5.28;2.97;;;11.10;99.90;;;;;;5059090;28;20029;-72
2023/01/02 09:37:16;;;;;;;3.80;2.92;;;11.10;99.90;;;;;;5057690;28;20033;-72
2023/01/02 09:39:42;;;;;;;4.70;3.33;;;11.10;99.90;;;;;;5053993;28;20029;-72
2023/01/02 09:42:14;;;;;;;4.28;2.70;;;11.10;99.90;;;;;;5053581;28;20025;-72
2023/01/02 09:44:47;;;;;;;3.60;2.35;;;11.20;99.90;;;;;;5054093;28;20412;-72
2023/01/02 09:47:16;;;;;;;;;;;11.20;99.90;;;;;;5055054;28;20028;-71
2023/01/02 09:49:55;;;;;;;3.47;3.17;;;11.20;99.90;;;;;;5054582;28;19908;-73
2023/01/02 09:52:36;;;;;;;5.00;3.40;;;11.10;99.90;;;;;;5054255;28;20032;-73
2023/01/02 09:55:03;;;;;;;5.82;4.10;;;11.10;99.90;;;;;;5054197;28;20033;-72
2023/01/02 09:57:29;;;;;;;5.93;3.50;;;11.10;99.90;;;;;;5053715;28;20419;-73
2023/01/02 10:00:04;;;;;;;4.55;3.75;;;11.10;99.90;;;;;;5053080;28;20053;-72
2023/01/02 10:02:38;;;;;;;4.80;3.22;;;11.00;99.90;;;;;;5054164;28;20033;-71
2023/01/02 10:05:26;;;;;;;4.97;3.83;;;11.10;99.90;;;;;;5052971;28;20055;-71
2023/01/02 10:08:06;;;;;;;2.72;2.50;;;11.10;99.90;;;;;;5054293;28;20164;-73
2023/01/02 10:10:56;;;;;;;4.90;2.45;;;11.00;99.90;;;;;;5054201;28;20025;-72
2023/01/02 10:13:59;;;;;;;3.88;1.77;;;10.90;99.90;;;;;;5054169;28;20021;-72
2023/01/02 10:16:30;;;;;;;3.83;1.90;;;10.90;99.90;;;;;;5054193;28;20126;-72
2023/01/02 10:19:00;;;;;;;4.78;1.80;;;10.90;99.90;;;;;;5053354;28;20094;-71
2023/01/02 10:21:34;;;;;;;4.45;1.63;;;10.80;99.90;;;;;;5053812;28;20021;-71
2023/01/02 10:24:36;;;;;;;3.75;2.00;;;10.90;99.90;;;;;;5053834;28;20132;-71
2023/01/02 10:27:04;;;;;;;3.72;1.63;;;10.90;99.90;;;;;;5053875;28;20033;-71
2023/01/02 10:29:38;;;;;;;4.97;1.52;;;10.90;99.90;;;;;;5052340;28;20029;-70
2023/01/02 10:32:14;;;;;;;4.30;1.75;;;10.90;99.90;;;;;;5052415;28;20063;-71
2023/01/02 10:35:13;;;;;;;4.53;1.40;;;10.90;99.90;;;;;;5054109;28;20380;-71
2023/01/02 10:37:38;;;;;;;7.22;1.65;;;11.00;99.90;;;;;;5051945;28;20032;-71
2023/01/02 10:40:04;;;;;;;5.03;1.23;;;11.00;99.90;;;;;;5053277;28;20472;-71
2023/01/02 10:42:32;;;;;;;8.25;1.70;;;11.00;99.90;;;;;;5052805;28;20472;-71
2023/01/02 10:44:59;;;;;;;5.47;1.33;;;11.00;99.90;;;;;;5052144;28;20021;-70
2023/01/02 10:47:37;;;;;;;5.32;1.25;;;11.00;99.90;;;;;;5051940;28;20036;-71
2023/01/02 10:50:17;;;;;;;5.65;1.38;;;11.00;99.90;;;;;;5053061;28;20046;-70
2023/01/02 10:52:50;;;;;;;5.45;1.05;;;11.00;99.90;;;;;;5053714;28;20100;-70
2023/01/02 10:55:40;;;;;;;5.60;1.58;;;11.00;99.90;;;;;;5053205;28;20032;-71
2023/01/02 10:58:24;;;;;;;3.90;0.82;;;11.10;99.90;;;;;;5052924;28;20062;-71
2023/01/02 11:00:51;;;;;;;6.28;1.33;;;11.10;99.90;;;;;;5053455;28;20039;-71
2023/01/02 11:03:21;;;;;;;5.53;1.45;;;11.10;99.90;;;;;;5053150;28;20075;-71
2023/01/02 11:05:53;;;;;;;5.25;1.50;;;11.10;99.90;;;;;;5053593;28;20025;-72
2023/01/02 11:08:22;;;;;;;3.78;1.23;;;11.10;99.90;;;;;;5052846;28;20029;-71
2023/01/02 11:10:49;;;;;;;5.43;1.85;;;11.10;99.90;;;;;;5053519;28;20025;-71
2023/01/02 11:13:20;;;;;;;6.20;1.70;;;11.10;99.90;;;;;;5055334;28;20040;-71
2023/01/02 11:15:59;;;;;;;4.88;1.38;;;11.20;99.90;;;;;;5056591;28;20017;-71
2023/01/02 11:18:30;;;;;;;4.65;1.48;;;11.20;99.90;;;;;;5053114;28;20048;-72
2023/01/02 11:21:06;;;;;;;6.13;1.58;;;11.30;99.90;;;;;;5052444;28;20162;-72
2023/01/02 11:23:38;;;;;;;8.93;1.42;;;11.30;99.90;;;;;;5053080;28;20032;-72
2023/01/02 11:26:09;;;;;;;4.45;1.00;;;11.30;99.90;;;;;;5051941;28;20151;-72
2023/01/02 11:28:39;;;;;;;6.57;1.30;;;11.30;99.90;;;;;;5052196;28;20032;-71
2023/01/02 11:31:09;;;;;;;5.57;1.30;;;11.30;99.90;;;;;;5057422;28;20021;-71
2023/01/02 11:33:36;;;;;;;2.72;0.80;;;11.40;99.90;;;;;;5056904;28;20017;-71
2023/01/02 11:36:05;;;;;;;2.90;0.75;;;11.40;99.90;;;;;;5057515;28;20021;-71
2023/01/02 11:38:42;;;;;;;4.25;0.90;;;11.40;99.90;;;;;;5056862;28;20136;-71
2023/01/02 11:44:53;;;;;;;5.47;1.00;;;11.40;99.90;;;;;;5056610;28;20028;-72
2023/01/02 11:47:33;;;;;;;5.72;0.88;;;11.40;99.90;;;;;;5055812;28;20037;-72
2023/01/02 11:49:59;;;;;;;5.78;0.80;;;11.30;99.90;;;;;;5056562;28;20027;-70
2023/01/02 11:52:49;;;;;;;4.75;0.68;;;11.40;99.90;;;;;;5056510;28;20174;-72
2023/01/02 11:55:38;;;;;;;5.53;0.70;;;11.30;99.90;;;;;;5053987;28;20029;-72
2023/01/02 11:58:25;;;;;;;5.40;0.65;;;11.30;99.90;;;;;;5055115;28;20052;-69
2023/01/02 12:00:55;;;;;;;4.10;0.63;;;11.30;99.90;;;;;;5056682;28;20112;-69
2023/01/02 12:03:23;;;;;;;6.28;0.88;;;11.30;99.90;;;;;;5054894;28;20021;-69
2023/01/02 12:06:00;;;;;;;6.30;0.60;;;11.30;99.90;;;;;;5056102;28;20024;-70
2023/01/02 12:08:34;;;;;;;8.30;0.77;;;11.30;99.90;;;;;;5056598;28;20438;-70
2023/01/02 12:11:02;;;;;;;5.10;0.70;;;11.40;99.90;;;;;;5055791;28;20167;-70
2023/01/02 12:13:51;;;;;;;4.63;1.10;;;11.40;99.90;;;;;;5054700;28;20040;-70
2023/01/02 12:16:40;;;;;;;7.30;1.58;;;11.40;99.90;;;;;;5055323;28;20092;-72
2023/01/02 12:19:14;;;;;;;8.82;1.98;;;11.40;99.90;;;;;;5056023;28;20037;-70
2023/01/02 12:21:59;;;;;;;5.32;1.88;;;11.30;99.90;;;;;;5054458;28;20021;-71
2023/01/02 12:25:09;;;;;;;5.68;1.98;;;11.30;99.90;;;;;;5055512;28;20100;-71
2023/01/02 12:28:00;;;;;;;7.55;2.10;;;11.30;99.90;;;;;;5021585;28;20115;-70
2023/01/02 12:30:31;;;;;;;8.63;2.20;;;11.30;99.90;;;;;;5056062;28;20094;-71
2023/01/02 12:33:34;;;;;;;7.05;2.05;;;11.20;99.90;;;;;;5054448;28;20025;-70
2023/01/02 12:36:36;;;;;;;5.35;2.20;;;11.20;99.90;;;;;;5055705;28;20028;-70
2023/01/02 12:39:35;;;;;;;8.57;2.40;;;11.30;99.90;;;;;;5054657;28;20230;-71
2023/01/02 12:42:27;;;;;;;10.05;2.13;;;11.30;99.90;;;;;;5054384;28;20025;-71
2023/01/02 12:44:57;;;;;;;7.65;1.92;;;11.30;99.90;;;;;;5055309;28;20027;-71
2023/01/02 12:47:26;;;;;;;7.93;2.40;;;11.30;99.90;;;;;;5055373;28;20041;-71
2023/01/02 12:50:02;;;;;;;7.72;2.38;;;11.30;99.90;;;;;;5055439;28;20416;-71
2023/01/02 12:52:47;;;;;;;9.63;2.92;;;11.30;99.90;;;;;;5056513;28;20465;-70
2023/01/02 12:55:23;;;;;;;8.40;2.20;;;11.30;99.90;;;;;;5057070;28;20025;-71
2023/01/02 12:58:11;;;;;;;6.05;2.53;;;11.30;99.90;;;;;;5055784;28;20058;-71
2023/01/02 13:00:55;;;;;;;8.55;2.38;;;11.30;99.90;;;;;;5055613;28;20071;-70
2023/01/02 13:03:32;;;;;;;7.60;2.35;;;11.40;99.90;;;;;;5055831;28;20021;-71
2023/01/02 13:06:23;;;;;;;6.32;2.30;;;11.40;99.90;;;;;;5055209;28;20021;-70
2023/01/02 13:09:05;;;;;;;10.45;2.35;;;11.40;99.90;;;;;;5055174;28;20036;-71
2023/01/02 13:11:47;;;;;;;5.45;1.92;;;11.40;99.90;;;;;;5054547;28;20025;-70
2023/01/02 13:14:18;;;;;;;8.77;2.30;;;11.50;99.90;;;;;;5054132;28;20448;-70
2023/01/02 13:17:07;;;;;;;8.40;2.50;;;11.40;99.90;;;;;;5054156;28;20450;-70